Glass, Virginia
Current Conditions -  °F | °C
As of 2:54 AM on Thursday 29 Jan 2015 (Local Time) from KPHF Reporting Station
Clear Clear  
Wind Chill: 29°   Ceiling: Unl
Heat Index: 29°   Visibility: 10mi
Dew Point: 13°   Wind: 0mph
Humidity: 51%   Direction: NA
Pressure: 30.34"   Gusts: NA
Location:  37.3028°N, 76.4825°W
Report Text: KPHF 290754Z 00000KT 10SM CLR M02/M11 A3034 RMK AO2 UPB16E34 SLP274 P0000 T10171106
Loading
Personal Weather Stations






























Interactive Weather Map New forecast layout! Learn more

10-Day Weather Forecast

Advertisements
Track Severe Weather on mobile